sensor_id;sensor_type;location;lat;lon;timestamp;temperature;humidity
19385;DHT22;9828;54.122;17.974;2023-04-03T00:00:08;1.40;99.90
19385;DHT22;9828;54.122;17.974;2023-04-03T00:05:29;1.40;99.90
19385;DHT22;9828;54.122;17.974;2023-04-03T00:10:51;1.30;99.90
19385;DHT22;9828;54.122;17.974;2023-04-03T00:16:12;1.30;99.90
19385;DHT22;9828;54.122;17.974;2023-04-03T00:21:33;1.40;99.90
19385;DHT22;9828;54.122;17.974;2023-04-03T00:26:54;1.40;99.90
19385;DHT22;9828;54.122;17.974;2023-04-03T00:32:18;1.40;99.90
19385;DHT22;9828;54.122;17.974;2023-04-03T00:37:39;1.40;99.90
19385;DHT22;9828;54.122;17.974;2023-04-03T00:43:02;1.40;99.90
19385;DHT22;9828;54.122;17.974;2023-04-03T00:48:30;1.30;99.90
19385;DHT22;9828;54.122;17.974;2023-04-03T00:53:55;1.30;99.90
19385;DHT22;9828;54.122;17.974;2023-04-03T00:59:22;1.30;99.90
19385;DHT22;9828;54.122;17.974;2023-04-03T01:04:46;1.20;99.90
19385;DHT22;9828;54.122;17.974;2023-04-03T01:10:11;1.20;99.90
19385;DHT22;9828;54.122;17.974;2023-04-03T01:15:34;1.30;99.90
19385;DHT22;9828;54.122;17.974;2023-04-03T01:26:23;1.30;99.90
19385;DHT22;9828;54.122;17.974;2023-04-03T01:31:57;1.30;99.90
19385;DHT22;9828;54.122;17.974;2023-04-03T01:37:20;1.30;99.90
19385;DHT22;9828;54.122;17.974;2023-04-03T01:42:41;1.30;99.90
19385;DHT22;9828;54.122;17.974;2023-04-03T01:48:03;1.20;99.90
19385;DHT22;9828;54.122;17.974;2023-04-03T01:53:25;1.30;99.90
19385;DHT22;9828;54.122;17.974;2023-04-03T01:58:47;1.40;99.90
19385;DHT22;9828;54.122;17.974;2023-04-03T02:04:08;1.40;99.90
19385;DHT22;9828;54.122;17.974;2023-04-03T02:09:29;1.40;99.90
19385;DHT22;9828;54.122;17.974;2023-04-03T02:14:51;1.30;99.90
19385;DHT22;9828;54.122;17.974;2023-04-03T02:20:13;1.30;99.90
19385;DHT22;9828;54.122;17.974;2023-04-03T02:25:35;1.20;99.90
19385;DHT22;9828;54.122;17.974;2023-04-03T02:30:58;1.20;99.90
19385;DHT22;9828;54.122;17.974;2023-04-03T02:36:19;1.20;99.90
19385;DHT22;9828;54.122;17.974;2023-04-03T02:41:47;1.20;99.90
19385;DHT22;9828;54.122;17.974;2023-04-03T02:47:14;1.30;99.90
19385;DHT22;9828;54.122;17.974;2023-04-03T02:52:35;1.30;99.90
19385;DHT22;9828;54.122;17.974;2023-04-03T02:57:56;1.10;99.90
19385;DHT22;9828;54.122;17.974;2023-04-03T03:03:17;1.20;99.90
19385;DHT22;9828;54.122;17.974;2023-04-03T03:08:39;1.20;99.90
19385;DHT22;9828;54.122;17.974;2023-04-03T03:13:59;1.20;99.90
19385;DHT22;9828;54.122;17.974;2023-04-03T03:19:21;1.20;99.90
19385;DHT22;9828;54.122;17.974;2023-04-03T03:24:42;1.10;99.90
19385;DHT22;9828;54.122;17.974;2023-04-03T03:30:04;1.20;99.90
19385;DHT22;9828;54.122;17.974;2023-04-03T03:35:26;1.40;99.90
19385;DHT22;9828;54.122;17.974;2023-04-03T03:40:49;1.40;99.90
19385;DHT22;9828;54.122;17.974;2023-04-03T03:46:12;1.50;99.00
19385;DHT22;9828;54.122;17.974;2023-04-03T03:51:34;1.50;99.50
19385;DHT22;9828;54.122;17.974;2023-04-03T03:56:55;1.60;97.90
19385;DHT22;9828;54.122;17.974;2023-04-03T04:02:18;1.70;97.20
19385;DHT22;9828;54.122;17.974;2023-04-03T04:07:39;1.70;91.70
19385;DHT22;9828;54.122;17.974;2023-04-03T04:13:00;1.70;85.90
19385;DHT22;9828;54.122;17.974;2023-04-03T04:18:22;1.80;85.30
19385;DHT22;9828;54.122;17.974;2023-04-03T04:23:44;1.80;67.20
19385;DHT22;9828;54.122;17.974;2023-04-03T04:29:09;1.80;56.70
19385;DHT22;9828;54.122;17.974;2023-04-03T04:34:31;1.80;57.30
19385;DHT22;9828;54.122;17.974;2023-04-03T04:39:54;1.80;55.90
19385;DHT22;9828;54.122;17.974;2023-04-03T04:45:16;1.70;48.50
19385;DHT22;9828;54.122;17.974;2023-04-03T04:50:39;1.80;54.80
19385;DHT22;9828;54.122;17.974;2023-04-03T04:56:01;1.80;53.70
19385;DHT22;9828;54.122;17.974;2023-04-03T05:01:23;1.90;52.20
19385;DHT22;9828;54.122;17.974;2023-04-03T05:06:55;1.80;52.60
19385;DHT22;9828;54.122;17.974;2023-04-03T05:12:20;1.90;50.70
19385;DHT22;9828;54.122;17.974;2023-04-03T05:17:47;1.90;44.20
19385;DHT22;9828;54.122;17.974;2023-04-03T05:23:10;1.80;40.40
19385;DHT22;9828;54.122;17.974;2023-04-03T05:28:33;1.80;38.00
19385;DHT22;9828;54.122;17.974;2023-04-03T05:33:55;1.80;34.50
19385;DHT22;9828;54.122;17.974;2023-04-03T05:39:16;1.80;33.30
19385;DHT22;9828;54.122;17.974;2023-04-03T05:46:54;1.90;49.30
19385;DHT22;9828;54.122;17.974;2023-04-03T05:57:43;2.10;35.70
19385;DHT22;9828;54.122;17.974;2023-04-03T06:03:04;2.10;30.90
19385;DHT22;9828;54.122;17.974;2023-04-03T06:08:26;2.00;31.20
19385;DHT22;9828;54.122;17.974;2023-04-03T06:13:47;2.10;31.70
19385;DHT22;9828;54.122;17.974;2023-04-03T06:19:09;2.30;29.80
19385;DHT22;9828;54.122;17.974;2023-04-03T06:24:34;2.40;29.50
19385;DHT22;9828;54.122;17.974;2023-04-03T06:29:56;2.70;27.80
19385;DHT22;9828;54.122;17.974;2023-04-03T06:35:17;3.10;27.40
19385;DHT22;9828;54.122;17.974;2023-04-03T06:40:39;3.00;25.50
19385;DHT22;9828;54.122;17.974;2023-04-03T06:46:00;3.00;27.10
19385;DHT22;9828;54.122;17.974;2023-04-03T06:51:27;2.90;26.30
19385;DHT22;9828;54.122;17.974;2023-04-03T06:56:48;3.00;27.40
19385;DHT22;9828;54.122;17.974;2023-04-03T07:02:11;3.50;27.60
19385;DHT22;9828;54.122;17.974;2023-04-03T07:07:33;4.50;24.40
19385;DHT22;9828;54.122;17.974;2023-04-03T07:12:55;5.30;21.50
19385;DHT22;9828;54.122;17.974;2023-04-03T07:18:16;4.90;20.90
19385;DHT22;9828;54.122;17.974;2023-04-03T07:23:40;4.40;21.60
19385;DHT22;9828;54.122;17.974;2023-04-03T07:29:02;5.20;21.00
19385;DHT22;9828;54.122;17.974;2023-04-03T07:34:23;6.80;17.60
19385;DHT22;9828;54.122;17.974;2023-04-03T07:39:44;8.00;14.20
19385;DHT22;9828;54.122;17.974;2023-04-03T07:45:06;8.80;11.00
19385;DHT22;9828;54.122;17.974;2023-04-03T07:50:28;9.60;9.30
19385;DHT22;9828;54.122;17.974;2023-04-03T07:55:51;8.90;8.00
19385;DHT22;9828;54.122;17.974;2023-04-03T08:01:16;8.80;8.10
19385;DHT22;9828;54.122;17.974;2023-04-03T08:06:37;8.70;8.60
19385;DHT22;9828;54.122;17.974;2023-04-03T08:12:05;9.10;6.40
19385;DHT22;9828;54.122;17.974;2023-04-03T08:17:26;9.90;6.40
19385;DHT22;9828;54.122;17.974;2023-04-03T08:22:47;9.40;5.80
19385;DHT22;9828;54.122;17.974;2023-04-03T08:28:10;8.50;5.80
19385;DHT22;9828;54.122;17.974;2023-04-03T08:33:33;8.80;7.40
19385;DHT22;9828;54.122;17.974;2023-04-03T08:38:55;9.80;5.80
19385;DHT22;9828;54.122;17.974;2023-04-03T08:44:52;9.60;4.80
19385;DHT22;9828;54.122;17.974;2023-04-03T08:50:19;8.20;6.40
19385;DHT22;9828;54.122;17.974;2023-04-03T08:55:48;8.20;7.70
19385;DHT22;9828;54.122;17.974;2023-04-03T09:01:28;9.00;5.80
19385;DHT22;9828;54.122;17.974;2023-04-03T09:06:55;8.80;6.10
19385;DHT22;9828;54.122;17.974;2023-04-03T09:12:23;9.30;5.30
19385;DHT22;9828;54.122;17.974;2023-04-03T09:18:03;9.90;4.70
19385;DHT22;9828;54.122;17.974;2023-04-03T09:29:02;8.20;6.40
19385;DHT22;9828;54.122;17.974;2023-04-03T09:34:36;7.10;8.60
19385;DHT22;9828;54.122;17.974;2023-04-03T09:39:57;7.00;9.80
19385;DHT22;9828;54.122;17.974;2023-04-03T09:45:24;6.80;10.30
19385;DHT22;9828;54.122;17.974;2023-04-03T09:51:02;6.50;10.60
19385;DHT22;9828;54.122;17.974;2023-04-03T09:56:27;6.40;11.00
19385;DHT22;9828;54.122;17.974;2023-04-03T10:07:42;6.00;11.40
19385;DHT22;9828;54.122;17.974;2023-04-03T10:13:14;6.10;11.20
19385;DHT22;9828;54.122;17.974;2023-04-03T10:52:22;7.40;11.60
19385;DHT22;9828;54.122;17.974;2023-04-03T10:57:44;6.70;11.90
19385;DHT22;9828;54.122;17.974;2023-04-03T11:03:38;6.40;12.70
19385;DHT22;9828;54.122;17.974;2023-04-03T11:09:13;6.40;14.40
19385;DHT22;9828;54.122;17.974;2023-04-03T11:14:38;6.70;14.20
19385;DHT22;9828;54.122;17.974;2023-04-03T11:25:33;7.40;12.80
19385;DHT22;9828;54.122;17.974;2023-04-03T11:36:34;6.30;19.60
19385;DHT22;9828;54.122;17.974;2023-04-03T11:48:00;5.50;23.70
19385;DHT22;9828;54.122;17.974;2023-04-03T12:04:31;5.50;82.10
19385;DHT22;9828;54.122;17.974;2023-04-03T12:09:57;6.40;53.10
19385;DHT22;9828;54.122;17.974;2023-04-03T12:20:56;5.70;32.10
19385;DHT22;9828;54.122;17.974;2023-04-03T12:31:50;5.50;37.60
19385;DHT22;9828;54.122;17.974;2023-04-03T12:48:27;5.90;27.20
19385;DHT22;9828;54.122;17.974;2023-04-03T12:53:51;6.00;24.00
19385;DHT22;9828;54.122;17.974;2023-04-03T12:59:22;6.00;22.90
19385;DHT22;9828;54.122;17.974;2023-04-03T13:04:44;6.10;21.80
19385;DHT22;9828;54.122;17.974;2023-04-03T13:15:41;7.00;16.60
19385;DHT22;9828;54.122;17.974;2023-04-03T13:21:06;6.80;15.70
19385;DHT22;9828;54.122;17.974;2023-04-03T13:26:30;6.60;15.10
19385;DHT22;9828;54.122;17.974;2023-04-03T13:31:54;6.70;14.70
19385;DHT22;9828;54.122;17.974;2023-04-03T13:37:30;6.50;12.90
19385;DHT22;9828;54.122;17.974;2023-04-03T13:43:04;6.70;13.70
19385;DHT22;9828;54.122;17.974;2023-04-03T13:48:26;7.00;13.80
19385;DHT22;9828;54.122;17.974;2023-04-03T13:53:58;6.50;14.40
19385;DHT22;9828;54.122;17.974;2023-04-03T13:59:24;6.10;15.80
19385;DHT22;9828;54.122;17.974;2023-04-03T14:04:52;6.00;19.70
19385;DHT22;9828;54.122;17.974;2023-04-03T14:10:17;5.80;24.70
19385;DHT22;9828;54.122;17.974;2023-04-03T14:15:39;5.20;37.30
19385;DHT22;9828;54.122;17.974;2023-04-03T14:21:00;4.80;79.40
19385;DHT22;9828;54.122;17.974;2023-04-03T14:26:24;4.80;76.10
19385;DHT22;9828;54.122;17.974;2023-04-03T14:31:48;4.90;65.20
19385;DHT22;9828;54.122;17.974;2023-04-03T14:37:30;5.10;56.80
19385;DHT22;9828;54.122;17.974;2023-04-03T14:42:52;5.20;48.50
19385;DHT22;9828;54.122;17.974;2023-04-03T14:48:21;5.50;38.80
19385;DHT22;9828;54.122;17.974;2023-04-03T14:53:43;5.80;26.60
19385;DHT22;9828;54.122;17.974;2023-04-03T14:59:11;5.50;19.50
19385;DHT22;9828;54.122;17.974;2023-04-03T15:04:33;5.20;18.80
19385;DHT22;9828;54.122;17.974;2023-04-03T15:09:55;5.00;18.90
19385;DHT22;9828;54.122;17.974;2023-04-03T15:15:20;4.90;19.80
19385;DHT22;9828;54.122;17.974;2023-04-03T15:20:42;5.00;20.50
19385;DHT22;9828;54.122;17.974;2023-04-03T15:26:04;5.40;19.60
19385;DHT22;9828;54.122;17.974;2023-04-03T15:31:26;5.30;18.10
19385;DHT22;9828;54.122;17.974;2023-04-03T15:36:49;5.10;17.00
19385;DHT22;9828;54.122;17.974;2023-04-03T15:42:11;4.80;17.50
19385;DHT22;9828;54.122;17.974;2023-04-03T15:47:33;4.60;17.50
19385;DHT22;9828;54.122;17.974;2023-04-03T15:52:54;4.40;17.20
19385;DHT22;9828;54.122;17.974;2023-04-03T15:58:16;4.40;17.60
19385;DHT22;9828;54.122;17.974;2023-04-03T16:03:38;4.20;17.50
19385;DHT22;9828;54.122;17.974;2023-04-03T16:09:04;4.20;18.20
19385;DHT22;9828;54.122;17.974;2023-04-03T16:14:25;4.30;18.70
19385;DHT22;9828;54.122;17.974;2023-04-03T16:19:48;4.40;19.80
19385;DHT22;9828;54.122;17.974;2023-04-03T16:25:11;4.50;21.20
19385;DHT22;9828;54.122;17.974;2023-04-03T16:30:33;4.30;21.40
19385;DHT22;9828;54.122;17.974;2023-04-03T16:35:54;4.30;21.80
19385;DHT22;9828;54.122;17.974;2023-04-03T16:41:15;4.00;21.20
19385;DHT22;9828;54.122;17.974;2023-04-03T16:46:37;3.80;19.80
19385;DHT22;9828;54.122;17.974;2023-04-03T16:51:59;3.70;19.30
19385;DHT22;9828;54.122;17.974;2023-04-03T16:57:22;3.40;20.40
19385;DHT22;9828;54.122;17.974;2023-04-03T17:02:45;3.30;21.60
19385;DHT22;9828;54.122;17.974;2023-04-03T17:08:06;3.40;23.00
19385;DHT22;9828;54.122;17.974;2023-04-03T17:13:27;3.40;23.70
19385;DHT22;9828;54.122;17.974;2023-04-03T17:18:52;3.40;24.80
19385;DHT22;9828;54.122;17.974;2023-04-03T17:24:14;3.20;26.70
19385;DHT22;9828;54.122;17.974;2023-04-03T17:29:36;3.10;29.40
19385;DHT22;9828;54.122;17.974;2023-04-03T17:34:58;3.10;34.60
19385;DHT22;9828;54.122;17.974;2023-04-03T17:40:19;3.10;39.20
19385;DHT22;9828;54.122;17.974;2023-04-03T17:46:03;2.90;40.50
19385;DHT22;9828;54.122;17.974;2023-04-03T17:51:25;2.90;43.20
19385;DHT22;9828;54.122;17.974;2023-04-03T17:56:46;2.90;40.90
19385;DHT22;9828;54.122;17.974;2023-04-03T18:02:07;2.60;38.70
19385;DHT22;9828;54.122;17.974;2023-04-03T18:07:48;2.80;41.20
19385;DHT22;9828;54.122;17.974;2023-04-03T18:13:10;2.70;42.60
19385;DHT22;9828;54.122;17.974;2023-04-03T18:18:31;2.50;47.50
19385;DHT22;9828;54.122;17.974;2023-04-03T18:23:53;2.40;49.50
19385;DHT22;9828;54.122;17.974;2023-04-03T18:29:15;2.30;49.40
19385;DHT22;9828;54.122;17.974;2023-04-03T18:34:36;2.40;53.20
19385;DHT22;9828;54.122;17.974;2023-04-03T18:39:57;2.40;54.90
19385;DHT22;9828;54.122;17.974;2023-04-03T18:45:22;2.40;51.80
19385;DHT22;9828;54.122;17.974;2023-04-03T18:50:43;2.50;52.00
19385;DHT22;9828;54.122;17.974;2023-04-03T18:56:05;2.40;53.80
19385;DHT22;9828;54.122;17.974;2023-04-03T19:01:27;2.50;56.30
19385;DHT22;9828;54.122;17.974;2023-04-03T19:06:48;2.30;52.00
19385;DHT22;9828;54.122;17.974;2023-04-03T19:12:10;2.20;55.40
19385;DHT22;9828;54.122;17.974;2023-04-03T19:17:32;2.30;50.40
19385;DHT22;9828;54.122;17.974;2023-04-03T19:22:53;2.40;50.70
19385;DHT22;9828;54.122;17.974;2023-04-03T19:28:15;2.30;49.90
19385;DHT22;9828;54.122;17.974;2023-04-03T19:33:36;2.30;49.00
19385;DHT22;9828;54.122;17.974;2023-04-03T19:38:57;2.30;51.10
19385;DHT22;9828;54.122;17.974;2023-04-03T19:44:18;2.20;55.50
19385;DHT22;9828;54.122;17.974;2023-04-03T19:49:40;2.20;64.90
19385;DHT22;9828;54.122;17.974;2023-04-03T19:55:01;2.30;62.90
19385;DHT22;9828;54.122;17.974;2023-04-03T20:00:22;2.30;58.50
19385;DHT22;9828;54.122;17.974;2023-04-03T20:05:45;2.40;66.90
19385;DHT22;9828;54.122;17.974;2023-04-03T20:11:06;2.30;63.70
19385;DHT22;9828;54.122;17.974;2023-04-03T20:16:27;2.30;62.90
19385;DHT22;9828;54.122;17.974;2023-04-03T20:21:49;2.30;67.70
19385;DHT22;9828;54.122;17.974;2023-04-03T20:27:10;2.30;65.10
19385;DHT22;9828;54.122;17.974;2023-04-03T20:32:31;2.20;67.70
19385;DHT22;9828;54.122;17.974;2023-04-03T20:37:53;2.20;68.50
19385;DHT22;9828;54.122;17.974;2023-04-03T20:43:15;2.30;66.40
19385;DHT22;9828;54.122;17.974;2023-04-03T20:48:37;2.30;71.30
19385;DHT22;9828;54.122;17.974;2023-04-03T20:53:59;2.30;72.10
19385;DHT22;9828;54.122;17.974;2023-04-03T20:59:20;2.30;75.20
19385;DHT22;9828;54.122;17.974;2023-04-03T21:04:48;2.40;72.50
19385;DHT22;9828;54.122;17.974;2023-04-03T21:21:32;2.30;74.40
19385;DHT22;9828;54.122;17.974;2023-04-03T21:26:57;2.30;76.30
19385;DHT22;9828;54.122;17.974;2023-04-03T21:32:18;2.30;77.90
19385;DHT22;9828;54.122;17.974;2023-04-03T21:37:39;2.40;72.00
19385;DHT22;9828;54.122;17.974;2023-04-03T21:43:00;2.30;71.40
19385;DHT22;9828;54.122;17.974;2023-04-03T21:48:22;2.20;66.30
19385;DHT22;9828;54.122;17.974;2023-04-03T21:53:43;2.20;69.90
19385;DHT22;9828;54.122;17.974;2023-04-03T21:59:05;2.30;64.70
19385;DHT22;9828;54.122;17.974;2023-04-03T22:04:26;2.30;65.60
19385;DHT22;9828;54.122;17.974;2023-04-03T22:09:49;2.40;60.80
19385;DHT22;9828;54.122;17.974;2023-04-03T22:15:10;2.40;66.90
19385;DHT22;9828;54.122;17.974;2023-04-03T22:20:31;2.40;71.00
19385;DHT22;9828;54.122;17.974;2023-04-03T22:26:07;2.40;71.90
19385;DHT22;9828;54.122;17.974;2023-04-03T22:31:28;2.20;61.20
19385;DHT22;9828;54.122;17.974;2023-04-03T22:36:49;2.20;65.50
19385;DHT22;9828;54.122;17.974;2023-04-03T22:42:10;2.10;61.00
19385;DHT22;9828;54.122;17.974;2023-04-03T22:47:32;2.00;63.00
19385;DHT22;9828;54.122;17.974;2023-04-03T22:52:53;2.00;62.30
19385;DHT22;9828;54.122;17.974;2023-04-03T22:58:14;2.00;62.40
19385;DHT22;9828;54.122;17.974;2023-04-03T23:03:36;2.10;63.20
19385;DHT22;9828;54.122;17.974;2023-04-03T23:08:57;2.00;68.40
19385;DHT22;9828;54.122;17.974;2023-04-03T23:14:19;1.90;80.10
19385;DHT22;9828;54.122;17.974;2023-04-03T23:19:42;2.00;80.60
19385;DHT22;9828;54.122;17.974;2023-04-03T23:25:03;1.90;79.80
19385;DHT22;9828;54.122;17.974;2023-04-03T23:30:24;2.00;80.40
19385;DHT22;9828;54.122;17.974;2023-04-03T23:35:46;2.00;77.00
19385;DHT22;9828;54.122;17.974;2023-04-03T23:41:08;2.00;82.10
19385;DHT22;9828;54.122;17.974;2023-04-03T23:46:30;2.00;84.10
19385;DHT22;9828;54.122;17.974;2023-04-03T23:51:51;2.00;83.80
19385;DHT22;9828;54.122;17.974;2023-04-03T23:57:11;2.00;89.80
